VTBD

Don Mueang International Airport

Bangkok, Thailand
TAF VTBD 162300Z 1700/1806 09008KT 9999 FEW040 BECMG 1716/1718 01005KT BECMG 1802/1804 08008KT
Issued Valid From Valid To
Jan-16 @ 23:00 UTC
(7 hours ago)
Jan-17 @ 00:00 UTC
(6 hours ago)
Jan-18 @ 06:00 UTC
(in 24 hours)
Jan-17 @ 00:00 to Jan-17 @ 16:00
TAF VTBD 162300Z 1700/1806 09008KT 9999 FEW040
Wind Visibility Clouds
90° at 8 knots 10,000+ meters
  • Few at 4,000' AGL
Becoming Jan-17 @ 16:00 to Jan-18 @ 02:00
BECMG 1716/1718 01005KT
Wind Visibility Clouds
10° at 5 knots 10,000+ meters
  • Few at 4,000' AGL
Becoming Jan-18 @ 02:00 to Jan-18 @ 06:00
BECMG 1802/1804 08008KT
Wind Visibility Clouds
80° at 8 knots 10,000+ meters
  • Few at 4,000' AGL
TAF VTBD 162300Z 1700/1806 09008KT 9999 FEW040 BECMG 1716/1718 01005KT BECMG 1802/1804 08008KT
Issued Jan-16 @ 23:00 UTC
(7 hours ago)
Valid From Jan-17 @ 00:00 UTC
(6 hours ago)
Valid To Jan-18 @ 06:00 UTC
(in 24 hours)
Jan-17 @ 00:00 - Jan-17 @ 16:00
Wind Visibility
90° at 8 knots 10,000+ meters
Clouds
  • Few at 4,000' AGL
Becoming Jan-17 @ 16:00 - Jan-18 @ 02:00
Wind Visibility
10° at 5 knots 10,000+ meters
Clouds
  • Few at 4,000' AGL
Becoming Jan-18 @ 02:00 - Jan-18 @ 06:00
Wind Visibility
80° at 8 knots 10,000+ meters
Clouds
  • Few at 4,000' AGL